Time;durP1;ratioP1;P1;durP2;ratioP2;P2;SDS_P1;SDS_P2;PMS_P1;PMS_P2;Temp;Humidity;BMP_temperature;BMP_pressure;BME280_temperature;BME280_humidity;BME280_pressure;Samples;Min_cycle;Max_cycle;Signal;HPM_P1;HPM_P2
2022/03/01 00:01:48;;;;;;;1.23;1.23;;;;;;;;;;5054257;28;20464;-79
2022/03/01 00:04:14;;;;;;;1.67;1.40;;;;;;;;;;5054671;28;20414;-79
2022/03/01 00:06:40;;;;;;;1.30;1.30;;;;;;;;;;5052898;28;20418;-79
2022/03/01 00:09:06;;;;;;;1.00;1.00;;;;;;;;;;5053191;28;20461;-79
2022/03/01 00:11:32;;;;;;;1.23;1.13;;;;;;;;;;5053697;28;20536;-79
2022/03/01 00:13:59;;;;;;;1.07;1.07;;;21.10;49.50;;;;;;5052846;28;20434;-79
2022/03/01 00:16:25;;;;;;;1.00;1.00;;;;;;;;;;5054324;28;20406;-79
2022/03/01 00:18:51;;;;;;;1.00;1.00;;;;;;;;;;5054519;28;20500;-79
2022/03/01 00:21:16;;;;;;;1.60;1.50;;;20.80;65.40;;;;;;5054583;28;20407;-79
2022/03/01 00:23:42;;;;;;;1.60;1.60;;;21.20;60.90;;;;;;5054967;28;20834;-79
2022/03/01 00:26:08;;;;;;;0.90;0.90;;;;;;;;;;5054739;28;20210;-79
2022/03/01 00:28:34;;;;;;;1.67;1.57;;;;;;;;;;5054589;28;20184;-79
2022/03/01 00:31:00;;;;;;;1.30;1.30;;;;;;;;;;5053504;28;20488;-79
2022/03/01 00:33:26;;;;;;;1.30;1.30;;;;;;;;;;5053764;28;20428;-79
2022/03/01 00:35:52;;;;;;;1.20;1.20;;;;;;;;;;5053380;28;20409;-79
2022/03/01 00:38:18;;;;;;;1.20;1.20;;;;;;;;;;5052203;28;20906;-79
2022/03/01 00:40:44;;;;;;;1.30;1.30;;;;;;;;;;5052032;28;20780;-79
2022/03/01 00:43:10;;;;;;;1.30;1.30;;;;;;;;;;5051432;28;20414;-79
2022/03/01 00:45:36;;;;;;;1.17;1.17;;;;;;;;;;5049701;28;20870;-79
2022/03/01 00:48:02;;;;;;;1.10;1.10;;;;;;;;;;5050949;28;20431;-79
2022/03/01 00:50:28;;;;;;;1.00;1.00;;;;;;;;;;5049812;28;20454;-79
2022/03/01 00:52:54;;;;;;;1.20;1.10;;;;;;;;;;5051370;28;20425;-79
2022/03/01 00:55:20;;;;;;;1.30;1.30;;;;;;;;;;5050938;28;20496;-79
2022/03/01 00:57:46;;;;;;;1.17;1.17;;;;;;;;;;5051570;28;20566;-79
2022/03/01 01:00:13;;;;;;;1.30;1.30;;;;;;;;;;5050166;28;20767;-79
2022/03/01 01:02:39;;;;;;;1.50;1.40;;;;;;;;;;5051304;28;20425;-79
2022/03/01 01:05:05;;;;;;;1.47;1.47;;;21.60;50.00;;;;;;5049876;28;20410;-79
2022/03/01 01:07:31;;;;;;;1.20;1.20;;;20.80;70.80;;;;;;5051682;28;20948;-79
2022/03/01 01:09:57;;;;;;;1.00;1.00;;;;;;;;;;5049788;28;20525;-78
2022/03/01 01:12:23;;;;;;;1.23;1.23;;;;;;;;;;5051429;28;20190;-79
2022/03/01 01:14:49;;;;;;;1.27;1.27;;;;;;;;;;5051680;28;20434;-79
2022/03/01 01:17:16;;;;;;;1.37;1.37;;;;;;;;;;5051723;28;20439;-79
2022/03/01 01:19:42;;;;;;;1.40;1.40;;;;;;;;;;5049756;28;20407;-79
2022/03/01 01:24:52;;;;;;;1.33;1.33;;;;;;;;;;5051869;28;20456;-79
2022/03/01 01:27:18;;;;;;;1.67;1.57;;;;;;;;;;5051493;28;20438;-79
2022/03/01 01:29:44;;;;;;;1.03;1.03;;;;;;;;;;5051117;28;20557;-78
2022/03/01 01:32:10;;;;;;;1.20;1.20;;;;;;;;;;5050277;28;20407;-79
2022/03/01 01:34:36;;;;;;;1.40;1.30;;;;;;;;;;5051799;28;20460;-79
2022/03/01 01:37:02;;;;;;;1.30;1.30;;;;;;;;;;5051366;28;20454;-79
2022/03/01 01:39:28;;;;;;;1.63;1.60;;;;;;;;;;5051492;28;20410;-79
2022/03/01 01:41:54;;;;;;;1.27;1.20;;;;;;;;;;5051154;28;20465;-79
2022/03/01 01:44:20;;;;;;;1.17;1.17;;;;;;;;;;5051375;28;20472;-79
2022/03/01 01:46:46;;;;;;;1.30;1.20;;;;;;;;;;5051707;28;20426;-79
2022/03/01 01:49:12;;;;;;;1.30;1.30;;;;;;;;;;5050121;28;20493;-79
2022/03/01 01:51:38;;;;;;;1.20;1.20;;;;;;;;;;5051345;28;20422;-79
2022/03/01 01:54:04;;;;;;;1.40;1.40;;;;;;;;;;5051411;28;20399;-79
2022/03/01 01:56:30;;;;;;;1.10;1.00;;;;;;;;;;5051740;28;20551;-79
2022/03/01 01:58:56;;;;;;;1.67;1.53;;;;;;;;;;5052173;28;20423;-79
2022/03/01 02:01:23;;;;;;;1.10;1.10;;;;;;;;;;5051166;28;20925;-79
2022/03/01 02:03:49;;;;;;;1.10;1.10;;;;;;;;;;5049883;28;20421;-79
2022/03/01 02:06:15;;;;;;;1.33;1.33;;;;;;;;;;5050305;28;20406;-79
2022/03/01 02:08:41;;;;;;;1.30;1.30;;;;;;;;;;5052556;28;20507;-79
2022/03/01 02:11:08;;;;;;;1.53;1.40;;;;;;;;;;5050643;28;20441;-79
2022/03/01 02:13:34;;;;;;;1.17;1.17;;;;;;;;;;5049772;28;20426;-79
2022/03/01 02:16:00;;;;;;;1.60;1.50;;;;;;;;;;5051818;28;20885;-79
2022/03/01 02:18:26;;;;;;;1.27;1.27;;;;;;;;;;5050455;28;20471;-79
2022/03/01 02:20:52;;;;;;;1.00;1.00;;;;;;;;;;5051352;28;20407;-79
2022/03/01 02:23:17;;;;;;;1.20;1.20;;;20.60;69.70;;;;;;5051831;28;20414;-79
2022/03/01 02:25:43;;;;;;;1.33;1.33;;;;;;;;;;5051407;28;20422;-79
2022/03/01 02:28:09;;;;;;;1.10;1.10;;;21.10;73.80;;;;;;5051243;28;20231;-79
2022/03/01 02:30:35;;;;;;;1.10;1.10;;;;;;;;;;5051962;28;20464;-79
2022/03/01 02:33:01;;;;;;;1.20;1.10;;;20.60;50.70;;;;;;5051760;28;20180;-79
2022/03/01 02:35:27;;;;;;;1.60;1.50;;;;;;;;;;5049587;28;20422;-79
2022/03/01 02:37:53;;;;;;;1.40;1.40;;;;;;;;;;5051792;28;20499;-79
2022/03/01 02:40:20;;;;;;;1.63;1.53;;;;;;;;;;5049200;28;20421;-79
2022/03/01 02:42:47;;;;;;;1.33;1.33;;;20.80;50.60;;;;;;5051341;28;20462;-79
2022/03/01 02:45:16;;;;;;;2.50;1.40;;;20.70;76.80;;;;;;5050599;28;20410;-79
2022/03/01 02:47:42;;;;;;;1.17;1.10;;;20.60;48.40;;;;;;5050752;28;20454;-79
2022/03/01 02:50:10;;;;;;;1.53;1.43;;;20.90;50.40;;;;;;5050657;28;20767;-79
2022/03/01 02:52:36;;;;;;;1.20;1.20;;;;;;;;;;5051026;28;20438;-79
2022/03/01 02:55:05;;;;;;;1.43;1.43;;;20.90;50.80;;;;;;5050686;28;20782;-79
2022/03/01 02:57:31;;;;;;;1.67;1.57;;;;;;;;;;5050489;28;20930;-80
2022/03/01 02:59:57;;;;;;;1.17;1.17;;;;;;;;;;5049243;28;20422;-79
2022/03/01 03:02:23;;;;;;;1.10;1.10;;;;;;;;;;5051004;28;20783;-79
2022/03/01 03:04:50;;;;;;;1.97;1.23;;;;;;;;;;5051088;28;20411;-79
2022/03/01 03:07:15;;;;;;;1.13;1.13;;;20.70;63.80;;;;;;5049235;28;20441;-79
2022/03/01 03:09:41;;;;;;;1.40;1.40;;;;;;;;;;5050745;28;20458;-79
2022/03/01 03:12:11;;;;;;;1.70;1.60;;;;;;;;;;5050670;28;20202;-79
2022/03/01 03:14:37;;;;;;;1.37;1.27;;;;;;;;;;5050844;28;20480;-79
2022/03/01 03:17:03;;;;;;;1.23;1.23;;;20.80;57.60;;;;;;5051924;28;20438;-79
2022/03/01 03:19:29;;;;;;;1.40;1.30;;;;;;;;;;5054338;28;20854;-79
2022/03/01 03:21:55;;;;;;;1.40;1.40;;;;;;;;;;5055428;28;20418;-79
2022/03/01 03:24:21;;;;;;;1.03;1.03;;;;;;;;;;5054836;28;20407;-79
2022/03/01 03:26:47;;;;;;;1.53;1.43;;;;;;;;;;5054791;28;20794;-79
2022/03/01 03:29:13;;;;;;;1.67;1.63;;;;;;;;;;5053600;28;20481;-79
2022/03/01 03:31:41;;;;;;;1.20;1.20;;;20.80;50.70;;;;;;5052179;28;20414;-79
2022/03/01 03:34:08;;;;;;;1.10;1.10;;;20.80;50.30;;;;;;5051099;28;20502;-79
2022/03/01 03:36:35;;;;;;;1.23;1.23;;;20.20;50.40;;;;;;5052604;28;20517;-79
2022/03/01 03:39:03;;;;;;;1.10;1.10;;;20.80;50.50;;;;;;5052195;28;20488;-79
2022/03/01 03:41:29;;;;;;;1.20;1.20;;;;;;;;;;5052233;28;20517;-79
2022/03/01 03:43:55;;;;;;;1.73;1.60;;;;;;;;;;5050885;28;20796;-79
2022/03/01 03:46:21;;;;;;;1.60;1.50;;;;;;;;;;5051196;28;20414;-79
2022/03/01 03:48:47;;;;;;;1.40;1.40;;;;;;;;;;5052340;28;20576;-79
2022/03/01 03:51:14;;;;;;;1.10;1.10;;;;;;;;;;5052777;28;20464;-79
2022/03/01 03:53:40;;;;;;;1.33;1.33;;;;;;;;;;5052329;28;20760;-79
2022/03/01 03:56:05;;;;;;;1.47;1.47;;;;;;;;;;5052417;28;20437;-79
2022/03/01 03:58:32;;;;;;;1.13;1.13;;;;;;;;;;5052440;28;20553;-79
2022/03/01 04:00:58;;;;;;;1.53;1.53;;;;;;;;;;5052306;28;20500;-79
2022/03/01 04:03:23;;;;;;;1.13;1.13;;;20.70;48.10;;;;;;5051548;28;20494;-79
2022/03/01 04:05:50;;;;;;;1.63;1.60;;;20.80;49.30;;;;;;5053334;28;20856;-79
2022/03/01 04:08:16;;;;;;;1.20;1.20;;;;;;;;;;5051423;28;20587;-79
2022/03/01 04:10:43;;;;;;;1.20;1.20;;;20.80;50.50;;;;;;5051126;28;20787;-80
2022/03/01 04:13:09;;;;;;;1.63;1.53;;;;;;;;;;5050921;28;20525;-79
2022/03/01 04:15:35;;;;;;;1.57;1.47;;;;;;;;;;5052833;28;20407;-79
2022/03/01 04:18:01;;;;;;;1.70;1.60;;;20.80;68.80;;;;;;5050075;28;20469;-79
2022/03/01 04:20:31;;;;;;;1.17;1.17;;;20.70;46.80;;;;;;5049644;28;20970;-79
2022/03/01 04:22:57;;;;;;;1.33;1.33;;;;;;;;;;5049956;28;20419;-79
2022/03/01 04:25:23;;;;;;;1.00;1.00;;;;;;;;;;5048660;28;20580;-79
2022/03/01 04:27:49;;;;;;;1.27;1.17;;;;;;;;;;5050052;28;20509;-79
2022/03/01 04:30:15;;;;;;;1.93;1.83;;;;;;;;;;5053832;28;20457;-78
2022/03/01 04:32:42;;;;;;;1.10;1.10;;;;;;;;;;5054956;28;20460;-79
2022/03/01 04:35:09;;;;;;;1.30;1.23;;;20.80;50.70;;;;;;5071869;28;20452;-79
2022/03/01 04:37:39;;;;;;;1.47;1.37;;;20.80;50.30;;;;;;5074244;28;20796;-79
2022/03/01 04:40:06;;;;;;;1.67;1.67;;;20.70;50.10;;;;;;5074378;28;20433;-79
2022/03/01 04:42:32;;;;;;;1.80;1.70;;;;;;;;;;5074233;28;20500;-78
2022/03/01 04:44:59;;;;;;;1.57;1.57;;;20.50;49.50;;;;;;5074836;28;20441;-78
2022/03/01 04:47:25;;;;;;;1.60;1.60;;;;;;;;;;5074803;28;20433;-80
2022/03/01 04:49:51;;;;;;;1.57;1.50;;;;;;;;;;5060411;28;20472;-79
2022/03/01 04:52:17;;;;;;;1.57;1.57;;;;;;;;;;5054200;28;20426;-79
2022/03/01 04:54:43;;;;;;;1.63;1.63;;;;;;;;;;5053011;28;20425;-78
2022/03/01 04:57:09;;;;;;;1.40;1.30;;;;;;;;;;5052885;28;20443;-79
2022/03/01 04:59:35;;;;;;;1.53;1.53;;;;;;;;;;5051821;28;20487;-78
2022/03/01 05:02:01;;;;;;;1.30;1.30;;;;;;;;;;5053157;28;20890;-79
2022/03/01 05:04:27;;;;;;;2.70;1.30;;;;;;;;;;5052432;28;20412;-79
2022/03/01 05:06:54;;;;;;;1.40;1.40;;;20.70;48.90;;;;;;5052809;28;20403;-79
2022/03/01 05:09:23;;;;;;;1.57;1.53;;;;;;;;;;5050573;28;20492;-79
2022/03/01 05:11:50;;;;;;;0.93;0.93;;;20.70;48.30;;;;;;5052149;28;20410;-79
2022/03/01 05:14:16;;;;;;;1.50;1.50;;;;;;;;;;5052733;28;20476;-79
2022/03/01 05:16:42;;;;;;;1.50;1.40;;;;;;;;;;5051478;28;20414;-79
2022/03/01 05:19:09;;;;;;;1.43;1.33;;;;;;;;;;5050740;28;20434;-79
2022/03/01 05:21:35;;;;;;;1.80;1.80;;;;;;;;;;5052015;28;20414;-79
2022/03/01 05:24:01;;;;;;;1.13;1.13;;;;;;;;;;5052635;28;20798;-79
2022/03/01 05:26:27;;;;;;;2.00;1.90;;;20.40;48.50;;;;;;5052359;28;20544;-79
2022/03/01 05:28:53;;;;;;;1.70;1.60;;;;;;;;;;5052318;28;20438;-79
2022/03/01 05:31:20;;;;;;;1.53;1.43;;;;;;;;;;5051763;28;20410;-79
2022/03/01 05:33:46;;;;;;;1.33;1.30;;;20.40;74.70;;;;;;5058955;28;20500;-79
2022/03/01 05:36:13;;;;;;;1.57;1.30;;;;;;;;;;5071857;28;20433;-79
2022/03/01 05:38:38;;;;;;;1.17;1.17;;;;;;;;;;5071406;28;20430;-79
2022/03/01 05:41:04;;;;;;;1.40;1.40;;;;;;;;;;5071186;28;20413;-79
2022/03/01 05:43:31;;;;;;;1.33;1.33;;;20.60;49.90;;;;;;5072074;28;20424;-79
2022/03/01 05:45:57;;;;;;;1.83;1.17;;;21.20;48.70;;;;;;5070072;28;20511;-79
2022/03/01 05:48:23;;;;;;;1.50;1.40;;;;;;;;;;5068844;28;20443;-79
2022/03/01 05:50:49;;;;;;;1.50;1.40;;;;;;;;;;5051386;28;20532;-79
2022/03/01 05:53:15;;;;;;;1.57;1.47;;;;;;;;;;5051348;28;20403;-79
2022/03/01 05:55:41;;;;;;;1.10;1.10;;;;;;;;;;5051829;28;20490;-79
2022/03/01 05:58:07;;;;;;;2.07;1.43;;;;;;;;;;5051290;28;20462;-79
2022/03/01 06:00:33;;;;;;;2.10;1.90;;;;;;;;;;5051332;28;20425;-79
2022/03/01 06:02:59;;;;;;;1.37;1.27;;;;;;;;;;5049816;28;20414;-79
2022/03/01 06:05:26;;;;;;;1.40;1.30;;;20.60;48.30;;;;;;5051623;28;20402;-79
2022/03/01 06:07:52;;;;;;;2.30;1.60;;;;;;;;;;5051282;28;20484;-79
2022/03/01 06:10:18;;;;;;;1.40;1.33;;;;;;;;;;5051204;28;20462;-79
2022/03/01 06:12:44;;;;;;;1.50;1.40;;;;;;;;;;5050876;28;20426;-79
2022/03/01 06:15:10;;;;;;;1.17;1.17;;;;;;;;;;5051227;28;20403;-79
2022/03/01 06:17:37;;;;;;;1.80;1.70;;;;;;;;;;5051595;28;20422;-79
2022/03/01 06:20:03;;;;;;;1.10;1.10;;;;;;;;;;5049199;28;20893;-79
2022/03/01 06:22:29;;;;;;;1.50;1.40;;;;;;;;;;5048213;28;20418;-79
2022/03/01 06:24:55;;;;;;;1.40;1.40;;;;;;;;;;5049334;28;20782;-79
2022/03/01 06:27:22;;;;;;;1.93;1.83;;;20.70;48.00;;;;;;5049664;28;20513;-79
2022/03/01 06:29:48;;;;;;;1.73;1.73;;;;;;;;;;5049125;28;20468;-79
2022/03/01 06:32:14;;;;;;;1.80;1.70;;;;;;;;;;5049901;28;20920;-79
2022/03/01 06:34:40;;;;;;;1.90;1.80;;;;;;;;;;5063960;28;20410;-79
2022/03/01 06:37:12;;;;;;;1.90;1.80;;;;;;;;;;5045688;28;20909;-79
2022/03/01 06:39:38;;;;;;;1.67;1.57;;;;;;;;;;5050233;28;20834;-79
2022/03/01 06:42:04;;;;;;;1.50;1.50;;;;;;;;;;5043657;28;20414;-79
2022/03/01 06:44:30;;;;;;;1.40;1.40;;;;;;;;;;5050498;28;20501;-79
2022/03/01 06:46:56;;;;;;;2.00;1.90;;;;;;;;;;5050381;28;20425;-79
2022/03/01 06:49:22;;;;;;;2.27;2.17;;;;;;;;;;5050249;28;20453;-79
2022/03/01 06:51:48;;;;;;;1.20;1.20;;;;;;;;;;5050131;28;20442;-79
2022/03/01 06:54:14;;;;;;;1.80;1.77;;;;;;;;;;5055200;28;20407;-79
2022/03/01 06:56:40;;;;;;;1.53;1.53;;;;;;;;;;5053499;28;20414;-79
2022/03/01 06:59:06;;;;;;;1.37;1.37;;;;;;;;;;5053634;28;20529;-79
2022/03/01 07:01:32;;;;;;;1.67;1.57;;;;;;;;;;5055019;28;20901;-79
2022/03/01 07:03:58;;;;;;;1.80;1.70;;;;;;;;;;5054359;28;20414;-79
2022/03/01 07:06:24;;;;;;;1.83;1.73;;;;;;;;;;5054567;28;20413;-79
2022/03/01 07:08:50;;;;;;;1.67;1.63;;;;;;;;;;5053984;28;20484;-79
2022/03/01 07:11:16;;;;;;;1.40;1.40;;;;;;;;;;5053886;28;20458;-79
2022/03/01 07:13:42;;;;;;;2.10;2.00;;;;;;;;;;5054209;28;20427;-79
2022/03/01 07:16:08;;;;;;;1.10;1.10;;;;;;;;;;5054329;28;20406;-79
2022/03/01 07:18:34;;;;;;;1.60;1.50;;;;;;;;;;5053036;28;20441;-79
2022/03/01 07:21:00;;;;;;;1.57;1.47;;;;;;;;;;5054581;28;20567;-79
2022/03/01 07:23:26;;;;;;;1.50;1.40;;;;;;;;;;5052900;28;20878;-79
2022/03/01 07:25:52;;;;;;;1.63;1.57;;;;;;;;;;5054312;28;20497;-79
2022/03/01 07:28:18;;;;;;;1.70;1.60;;;;;;;;;;5054194;28;20452;-79
2022/03/01 07:30:44;;;;;;;1.40;1.40;;;;;;;;;;5047109;28;20494;-79
2022/03/01 07:33:10;;;;;;;1.47;1.40;;;;;;;;;;5054091;28;20414;-79
2022/03/01 07:35:36;;;;;;;1.47;1.47;;;;;;;;;;5052797;28;20942;-79
2022/03/01 07:38:02;;;;;;;1.30;1.30;;;;;;;;;;5053590;28;20433;-79
2022/03/01 07:40:28;;;;;;;1.60;1.50;;;;;;;;;;5052183;28;20551;-79
2022/03/01 07:42:55;;;;;;;1.40;1.30;;;20.60;49.70;;;;;;5053583;28;20485;-79
2022/03/01 07:45:21;;;;;;;1.23;1.23;;;20.60;50.00;;;;;;5053706;28;20497;-79
2022/03/01 07:47:47;;;;;;;1.23;1.23;;;;;;;;;;5053410;28;20422;-79
2022/03/01 07:50:13;;;;;;;1.53;1.53;;;;;;;;;;5053084;28;20485;-79
2022/03/01 07:52:39;;;;;;;1.80;1.70;;;;;;;;;;5053506;28;20413;-79
2022/03/01 07:55:06;;;;;;;1.67;1.57;;;20.60;49.60;;;;;;5053154;28;20403;-79
2022/03/01 07:57:32;;;;;;;1.60;1.50;;;;;;;;;;5053143;28;20462;-79
2022/03/01 07:59:58;;;;;;;1.53;1.43;;;;;;;;;;5052871;28;20422;-79
2022/03/01 08:02:24;;;;;;;1.53;1.50;;;;;;;;;;5053166;28;20421;-79
2022/03/01 08:04:49;;;;;;;1.33;1.33;;;;;;;;;;5051688;28;20415;-79
2022/03/01 08:07:15;;;;;;;1.87;1.77;;;;;;;;;;5053230;28;20457;-79
2022/03/01 08:09:41;;;;;;;1.50;1.40;;;;;;;;;;5052577;28;20553;-79
2022/03/01 08:12:08;;;;;;;1.40;1.37;;;20.60;50.10;;;;;;5052724;28;20426;-79
2022/03/01 08:14:35;;;;;;;2.00;1.90;;;20.60;49.90;;;;;;5052774;28;20556;-79
2022/03/01 08:17:02;;;;;;;1.33;1.33;;;20.20;56.00;;;;;;5052624;28;20423;-79
2022/03/01 08:19:27;;;;;;;1.40;1.40;;;20.60;58.10;;;;;;5050721;28;20421;-79
2022/03/01 08:21:53;;;;;;;2.47;1.77;;;;;;;;;;5052598;28;20423;-79
2022/03/01 08:24:19;;;;;;;1.83;1.73;;;;;;;;;;5052806;28;20172;-79
2022/03/01 08:26:45;;;;;;;1.43;1.37;;;;;;;;;;5052638;28;20422;-79
2022/03/01 08:29:12;;;;;;;1.60;1.50;;;;;;;;;;5051969;28;20434;-79
2022/03/01 08:31:41;;;;;;;1.60;1.50;;;;;;;;;;5052350;28;20750;-79
2022/03/01 08:34:07;;;;;;;2.13;2.03;;;;;;;;;;5060577;28;20430;-79
2022/03/01 08:36:33;;;;;;;1.37;1.37;;;20.70;57.40;;;;;;5072665;28;20892;-79
2022/03/01 08:38:59;;;;;;;1.73;1.63;;;;;;;;;;5071006;28;20491;-79
2022/03/01 08:41:25;;;;;;;1.67;1.67;;;21.10;52.80;;;;;;5072248;28;20397;-79
2022/03/01 08:43:51;;;;;;;1.60;1.50;;;;;;;;;;5071629;28;20402;-79
2022/03/01 08:46:17;;;;;;;1.70;1.70;;;;;;;;;;5072215;28;20401;-79
2022/03/01 08:48:44;;;;;;;1.57;1.47;;;;;;;;;;5066696;28;20460;-79
2022/03/01 08:51:10;;;;;;;1.90;1.80;;;;;;;;;;5051956;28;20556;-79
2022/03/01 08:53:36;;;;;;;1.83;1.73;;;;;;;;;;5050305;28;20913;-79
2022/03/01 08:56:02;;;;;;;1.63;1.40;;;;;;;;;;5050266;28;20446;-79
2022/03/01 08:58:28;;;;;;;2.10;2.00;;;;;;;;;;5050264;28;20929;-79
2022/03/01 09:00:54;;;;;;;1.80;1.70;;;;;;;;;;5051815;28;20407;-79
2022/03/01 09:03:23;;;;;;;2.00;1.90;;;;;;;;;;5052002;28;20520;-79
2022/03/01 09:05:49;;;;;;;2.00;1.90;;;;;;;;;;5050885;28;20501;-79
2022/03/01 09:08:15;;;;;;;1.60;1.50;;;;;;;;;;5050615;28;20793;-79
2022/03/01 09:10:41;;;;;;;1.60;1.50;;;;;;;;;;5050371;28;20542;-79
2022/03/01 09:13:07;;;;;;;1.33;1.33;;;;;;;;;;5050304;28;20426;-79
2022/03/01 09:15:33;;;;;;;1.63;1.53;;;;;;;;;;5050229;28;20407;-79
2022/03/01 09:18:05;;;;;;;1.60;1.60;;;20.10;45.80;;;;;;5050598;28;20422;-79
2022/03/01 09:20:31;;;;;;;1.83;1.73;;;;;;;;;;5049337;28;20468;-79
2022/03/01 09:22:57;;;;;;;1.73;1.43;;;20.70;48.20;;;;;;5052244;28;20413;-79
2022/03/01 09:25:23;;;;;;;2.20;1.70;;;;;;;;;;5051941;28;20472;-79
2022/03/01 09:27:49;;;;;;;1.53;1.43;;;;;;;;;;5050231;28;20870;-79
2022/03/01 09:30:16;;;;;;;1.87;1.70;;;;;;;;;;5050018;28;20526;-79
2022/03/01 09:32:42;;;;;;;1.50;1.50;;;;;;;;;;5050431;28;20744;-79
2022/03/01 09:35:08;;;;;;;2.30;2.20;;;;;;;;;;5068426;28;20414;-79
2022/03/01 09:37:35;;;;;;;1.77;1.67;;;;;;;;;;5070483;28;20837;-79
2022/03/01 09:40:01;;;;;;;1.90;1.80;;;;;;;;;;5070033;28;20413;-79
2022/03/01 09:42:27;;;;;;;1.73;1.63;;;20.70;49.90;;;;;;5070331;28;20500;-79
2022/03/01 09:44:55;;;;;;;1.33;1.23;;;20.70;49.70;;;;;;5068745;28;20876;-79
2022/03/01 09:47:22;;;;;;;1.80;1.70;;;;;;;;;;5070369;28;20491;-79
2022/03/01 09:49:48;;;;;;;1.93;1.53;;;;;;;;;;5055533;28;20462;-79
2022/03/01 09:52:14;;;;;;;2.10;2.00;;;20.70;48.50;;;;;;5050119;28;21109;-79
2022/03/01 09:54:41;;;;;;;2.00;1.90;;;;;;;;;;5050317;28;20406;-79
2022/03/01 09:57:07;;;;;;;1.87;1.77;;;;;;;;;;5050411;28;20434;-79
2022/03/01 09:59:33;;;;;;;1.83;1.73;;;;;;;;;;5050375;28;20418;-79
2022/03/01 10:01:59;;;;;;;1.40;1.40;;;;;;;;;;5050234;28;20484;-79
2022/03/01 10:04:25;;;;;;;1.80;1.70;;;;;;;;;;5048822;28;20426;-79
2022/03/01 10:06:51;;;;;;;1.70;1.60;;;20.70;49.20;;;;;;5050626;28;20425;-79
2022/03/01 10:09:23;;;;;;;1.60;1.60;;;20.80;52.40;;;;;;5050310;28;20901;-79
2022/03/01 10:11:50;;;;;;;1.80;1.70;;;20.70;49.60;;;;;;5050031;28;20452;-79
2022/03/01 10:14:16;;;;;;;1.57;1.47;;;;;;;;;;5050070;28;20977;-79
2022/03/01 10:16:44;;;;;;;2.37;2.27;;;20.60;49.70;;;;;;5050525;28;20479;-79
2022/03/01 10:19:20;;;;;;;1.30;1.20;;;20.70;50.00;;;;;;5048562;28;20451;-79
2022/03/01 10:22:01;;;;;;;2.50;1.90;;;20.70;49.80;;;;;;5048574;28;20432;-79
2022/03/01 10:24:27;;;;;;;1.70;1.63;;;20.60;48.40;;;;;;5050214;28;20882;-79
2022/03/01 10:27:01;;;;;;;2.13;2.03;;;20.70;46.30;;;;;;5049659;28;20407;-79
2022/03/01 10:29:28;;;;;;;1.90;1.90;;;20.70;49.50;;;;;;5050452;28;20512;-79
2022/03/01 10:32:09;;;;;;;1.97;1.87;;;20.70;46.40;;;;;;5050474;28;20403;-79
2022/03/01 10:34:34;;;;;;;2.10;2.00;;;20.40;54.90;;;;;;5063885;28;20398;-79
2022/03/01 10:37:00;;;;;;;1.37;1.27;;;;;;;;;;5069289;28;20402;-79
2022/03/01 10:39:29;;;;;;;1.30;1.30;;;20.70;49.70;;;;;;5070771;28;20175;-79
2022/03/01 10:41:55;;;;;;;1.77;1.67;;;20.80;48.70;;;;;;5070750;28;20417;-79
2022/03/01 10:44:31;;;;;;;2.23;2.13;;;20.90;49.90;;;;;;5071154;28;20500;-80
2022/03/01 10:47:01;;;;;;;1.60;1.50;;;20.70;49.60;;;;;;5072797;28;20405;-79
2022/03/01 10:49:31;;;;;;;2.00;1.90;;;21.30;50.20;;;;;;5058734;28;20457;-78
2022/03/01 10:52:07;;;;;;;1.83;1.73;;;20.70;49.90;;;;;;5050324;28;20415;-79
2022/03/01 10:54:36;;;;;;;2.17;1.97;;;20.80;46.40;;;;;;5048743;28;20414;-79
2022/03/01 10:57:04;;;;;;;1.80;1.70;;;20.80;50.00;;;;;;5049103;28;20406;-79
2022/03/01 10:59:33;;;;;;;1.43;1.43;;;20.80;54.50;;;;;;5050541;28;20429;-78
2022/03/01 11:02:00;;;;;;;1.90;1.80;;;21.20;49.90;;;;;;5050782;28;20422;-79
2022/03/01 11:04:26;;;;;;;1.87;1.77;;;20.80;49.00;;;;;;5050253;28;20414;-79
2022/03/01 11:06:54;;;;;;;1.50;1.40;;;21.00;59.60;;;;;;5050207;28;20441;-79
2022/03/01 11:09:23;;;;;;;1.40;1.40;;;20.80;49.60;;;;;;5050369;28;20577;-79
2022/03/01 11:11:52;;;;;;;1.23;1.20;;;20.90;49.80;;;;;;5050388;28;20415;-79
2022/03/01 11:14:35;;;;;;;1.60;1.60;;;20.80;46.50;;;;;;5050432;28;20391;-79
2022/03/01 11:17:16;;;;;;;1.60;1.60;;;20.70;55.50;;;;;;5048922;28;20402;-79
2022/03/01 11:19:54;;;;;;;1.47;1.37;;;20.80;46.50;;;;;;5050633;28;20501;-79
2022/03/01 11:22:50;;;;;;;1.63;1.53;;;20.80;46.40;;;;;;5051300;28;20843;-80
2022/03/01 11:25:23;;;;;;;2.50;1.97;;;20.80;46.10;;;;;;5050357;28;20534;-79
2022/03/01 11:27:51;;;;;;;1.97;1.87;;;20.90;49.70;;;;;;5050033;28;20437;-79
2022/03/01 11:30:24;;;;;;;1.90;1.80;;;20.90;49.60;;;;;;5049526;28;20548;-79
2022/03/01 11:32:55;;;;;;;1.73;1.63;;;20.90;49.70;;;;;;5049712;28;20493;-79
2022/03/01 11:35:27;;;;;;;1.47;1.37;;;22.30;50.20;;;;;;5068239;28;20509;-79
2022/03/01 11:38:04;;;;;;;1.20;1.20;;;20.90;46.00;;;;;;5071296;28;20433;-79
2022/03/01 11:40:33;;;;;;;1.67;1.57;;;21.00;63.30;;;;;;5073257;28;20431;-79
2022/03/01 11:43:13;;;;;;;1.70;1.70;;;20.90;46.10;;;;;;5074154;28;20488;-79
2022/03/01 11:45:44;;;;;;;1.67;1.57;;;21.00;49.50;;;;;;5072869;28;20732;-79
2022/03/01 11:48:16;;;;;;;1.27;1.27;;;21.00;46.30;;;;;;5072869;28;20436;-79
2022/03/01 11:51:04;;;;;;;1.43;1.43;;;19.60;45.60;;;;;;5053878;28;20466;-79
2022/03/01 11:53:35;;;;;;;1.20;1.10;;;21.00;49.10;;;;;;5053383;28;20430;-79
2022/03/01 11:56:03;;;;;;;1.40;1.30;;;20.90;49.20;;;;;;5050702;28;20410;-79
2022/03/01 11:58:29;;;;;;;1.73;1.63;;;;;;;;;;5051628;28;20961;-79
2022/03/01 12:00:58;;;;;;;1.20;1.20;;;;;;;;;;5051865;28;20423;-79
2022/03/01 12:03:27;;;;;;;1.13;1.13;;;21.10;45.90;;;;;;5051952;28;20402;-79
2022/03/01 12:05:55;;;;;;;1.40;1.40;;;21.00;50.60;;;;;;5052037;28;20414;-79
2022/03/01 12:08:21;;;;;;;1.50;1.43;;;21.10;59.60;;;;;;5051899;28;20780;-79
2022/03/01 12:11:13;;;;;;;1.70;1.60;;;21.30;46.40;;;;;;5051803;28;20461;-79
2022/03/01 12:13:44;;;;;;;1.93;1.87;;;22.00;46.20;;;;;;5051759;28;20461;-79
2022/03/01 12:16:27;;;;;;;1.60;1.50;;;21.20;48.80;;;;;;5052426;28;20880;-79
2022/03/01 12:19:23;;;;;;;1.57;1.47;;;21.30;48.80;;;;;;5052118;28;20541;-79
2022/03/01 12:21:50;;;;;;;1.20;1.20;;;;;;;;;;5051556;28;20462;-79
2022/03/01 12:24:16;;;;;;;1.87;1.77;;;;;;;;;;5052001;28;20774;-79
2022/03/01 12:26:53;;;;;;;1.70;1.60;;;21.30;45.40;;;;;;5051946;28;20406;-79
2022/03/01 12:29:24;;;;;;;1.43;1.40;;;21.30;45.50;;;;;;5051734;28;20465;-79
2022/03/01 12:31:59;;;;;;;1.70;1.60;;;21.30;45.30;;;;;;5050387;28;20848;-79
2022/03/01 12:34:27;;;;;;;1.60;1.50;;;21.30;48.50;;;;;;5064028;28;20431;-79
2022/03/01 12:36:58;;;;;;;1.60;1.60;;;21.10;45.50;;;;;;5057941;28;20450;-79
2022/03/01 12:39:27;;;;;;;1.60;1.50;;;;;;;;;;5048498;28;20571;-79
2022/03/01 12:41:54;;;;;;;1.27;1.27;;;21.30;48.90;;;;;;5048291;28;20421;-79
2022/03/01 12:44:22;;;;;;;1.70;1.60;;;21.30;48.70;;;;;;5051490;28;20442;-79
2022/03/01 12:46:48;;;;;;;1.70;1.60;;;21.40;47.10;;;;;;5051749;28;20417;-78
2022/03/01 12:49:16;;;;;;;1.47;1.47;;;21.40;48.70;;;;;;5050908;28;20430;-79
2022/03/01 12:51:42;;;;;;;1.67;1.60;;;21.30;47.30;;;;;;5049794;28;20422;-79
2022/03/01 12:54:14;;;;;;;1.30;1.30;;;20.90;48.60;;;;;;5051709;28;20501;-78
2022/03/01 12:56:45;;;;;;;1.63;1.63;;;21.50;49.00;;;;;;5051434;28;20465;-79
2022/03/01 12:59:12;;;;;;;1.60;1.50;;;22.00;49.40;;;;;;5051179;28;20434;-79
2022/03/01 13:01:42;;;;;;;1.43;1.33;;;21.50;49.90;;;;;;5051449;28;20515;-79
2022/03/01 13:04:08;;;;;;;1.20;1.20;;;;;;;;;;5051545;28;20501;-79
2022/03/01 13:06:35;;;;;;;1.77;1.67;;;;;;;;;;5051546;28;20430;-79
2022/03/01 13:09:01;;;;;;;1.10;1.10;;;;;;;;;;5051384;28;20478;-78
2022/03/01 13:11:27;;;;;;;1.63;1.53;;;;;;;;;;5051211;28;20548;-79
2022/03/01 13:14:02;;;;;;;1.23;1.23;;;21.60;45.40;;;;;;5051148;28;20427;-79
2022/03/01 13:16:28;;;;;;;1.20;1.10;;;;;;;;;;5051535;28;20398;-79
2022/03/01 13:19:33;;;;;;;1.30;1.20;;;21.60;45.30;;;;;;5051159;28;20433;-79
2022/03/01 13:22:01;;;;;;;1.30;1.30;;;21.60;45.40;;;;;;5051253;28;20731;-79
2022/03/01 13:24:35;;;;;;;1.80;1.70;;;21.70;45.30;;;;;;5050093;28;20517;-79
2022/03/01 13:27:03;;;;;;;1.33;1.33;;;22.20;49.20;;;;;;5051400;28;20873;-79
2022/03/01 13:29:33;;;;;;;1.40;1.40;;;21.70;49.30;;;;;;5051036;28;20462;-79
2022/03/01 13:32:10;;;;;;;1.90;1.77;;;21.80;45.20;;;;;;5051331;28;20411;-79
2022/03/01 13:34:38;;;;;;;1.57;1.47;;;21.80;49.00;;;;;;5064672;28;20506;-79
2022/03/01 13:37:12;;;;;;;1.60;1.50;;;21.80;45.10;;;;;;5069948;28;20444;-79
2022/03/01 13:39:41;;;;;;;1.93;1.83;;;21.80;48.70;;;;;;5071355;28;20468;-79
2022/03/01 13:42:10;;;;;;;1.30;1.30;;;21.80;48.80;;;;;;5071128;28;20555;-79
2022/03/01 13:44:41;;;;;;;1.77;1.30;;;;;;;;;;5071494;28;20463;-79
2022/03/01 13:47:14;;;;;;;1.50;1.40;;;21.90;45.20;;;;;;5071168;28;20436;-79
2022/03/01 13:49:52;;;;;;;1.30;1.30;;;22.00;48.80;;;;;;5057853;28;20519;-79
2022/03/01 13:52:26;;;;;;;1.30;1.30;;;21.90;49.00;;;;;;5052100;28;20715;-78
2022/03/01 13:55:10;;;;;;;1.00;1.00;;;21.90;45.10;;;;;;5052254;28;20406;-79
2022/03/01 13:57:41;;;;;;;1.10;1.10;;;21.90;48.80;;;;;;5050995;28;20446;-79
2022/03/01 14:00:13;;;;;;;1.77;1.67;;;22.20;48.80;;;;;;5052228;28;20395;-79